Appleton, Maine
Current Conditions -  °F | °C
As of 4:35 AM on Wednesday 22 Oct 2014 (Local Time) from KRKD Reporting Station
Overcast Overcast  
Wind Chill: 50°   Ceiling: 4900
Heat Index: 50°   Visibility: 9mi
Dew Point: 48°   Wind: 14mph
Humidity: 94%   Direction: 40°NE
Pressure: 30.09"   Gusts: 23mph
Location:  44.2596°N, 69.2573°W
Report Text: KRKD 220835Z AUTO 04012G20KT 9SM FEW022 OVC049 10/09 A3009 RMK AO1 P0002
Loading
Personal Weather Stations






























Interactive Weather Map
Tropical Storm Tracking
New forecast layout! Learn more

10-Day Weather Forecast

Advertisements
Track Severe Weather on mobile